createdAt,value
2022-08-14T00:02:02.425Z,7.05
2022-08-14T00:04:35.623Z,6.82
2022-08-14T00:07:09.719Z,6.63
2022-08-14T00:09:39.941Z,6.28
2022-08-14T00:12:24.898Z,6.93
2022-08-14T00:15:04.133Z,6.82
2022-08-14T00:20:08.493Z,7.03
2022-08-14T00:22:56.119Z,7.75
2022-08-14T00:25:23.163Z,6.95
2022-08-14T00:27:54.214Z,7.05
2022-08-14T00:30:22.053Z,6.93
2022-08-14T00:32:52.728Z,6.93
2022-08-14T00:36:37.317Z,6.65
2022-08-14T00:38:10.842Z,7.10
2022-08-14T00:40:37.814Z,7.05
2022-08-14T00:43:06.031Z,6.93
2022-08-14T00:45:33.095Z,7.05
2022-08-14T00:48:00.257Z,6.78
2022-08-14T00:50:31.066Z,6.63
2022-08-14T00:53:00.276Z,7.05
2022-08-14T00:55:30.129Z,7.30
2022-08-14T00:58:18.560Z,6.70
2022-08-14T01:00:57.689Z,6.75
2022-08-14T01:03:26.404Z,6.80
2022-08-14T01:05:53.264Z,7.00
2022-08-14T01:08:57.480Z,7.15
2022-08-14T01:11:19.433Z,7.07
2022-08-14T01:13:55.807Z,7.47
2022-08-14T01:16:31.362Z,7.00
2022-08-14T01:19:17.359Z,7.28
2022-08-14T01:21:53.087Z,7.22
2022-08-14T01:24:28.782Z,7.60
2022-08-14T01:27:00.229Z,7.00
2022-08-14T01:29:58.578Z,7.55
2022-08-14T01:32:22.764Z,6.97
2022-08-14T01:35:20.333Z,6.97
2022-08-14T01:37:54.795Z,7.15
2022-08-14T01:40:25.589Z,7.22
2022-08-14T01:43:02.577Z,7.43
2022-08-14T01:45:31.330Z,7.43
2022-08-14T01:48:07.135Z,7.50
2022-08-14T01:50:41.842Z,7.90
2022-08-14T01:53:09.563Z,7.10
2022-08-14T01:55:38.580Z,7.47
2022-08-14T01:58:20.027Z,7.45
2022-08-14T02:00:56.482Z,7.20
2022-08-14T02:03:29.854Z,7.88
2022-08-14T02:05:59.544Z,7.60
2022-08-14T02:08:34.709Z,8.13
2022-08-14T02:11:22.263Z,8.07
2022-08-14T02:13:58.461Z,7.10
2022-08-14T02:16:27.625Z,8.27
2022-08-14T02:18:58.116Z,8.15
2022-08-14T02:21:26.936Z,8.70
2022-08-14T02:23:55.566Z,8.68
2022-08-14T02:26:29.774Z,8.90
2022-08-14T02:29:03.263Z,8.95
2022-08-14T02:31:43.274Z,9.15
2022-08-14T02:34:27.372Z,10.32
2022-08-14T02:37:06.568Z,10.00
2022-08-14T02:39:37.236Z,10.13
2022-08-14T02:42:05.774Z,10.50
2022-08-14T02:44:39.647Z,10.18
2022-08-14T02:47:14.751Z,10.45
2022-08-14T02:49:42.690Z,10.35
2022-08-14T02:52:56.454Z,9.93
2022-08-14T02:54:57.518Z,10.88
2022-08-14T02:57:40.141Z,10.63
2022-08-14T03:00:09.970Z,10.93
2022-08-14T03:02:56.513Z,10.82
2022-08-14T03:05:24.559Z,10.10
2022-08-14T03:07:51.844Z,10.50
2022-08-14T03:10:26.821Z,10.65
2022-08-14T03:12:59.124Z,11.18
2022-08-14T03:15:27.867Z,11.05
2022-08-14T03:17:57.576Z,12.00
2022-08-14T03:20:27.942Z,11.80
2022-08-14T03:22:59.431Z,11.38
2022-08-14T03:25:28.407Z,11.82
2022-08-14T03:27:58.510Z,12.52
2022-08-14T03:30:39.207Z,11.23
2022-08-14T03:33:10.591Z,12.15
2022-08-14T03:36:05.241Z,11.98
2022-08-14T03:39:14.855Z,12.20
2022-08-14T03:41:23.333Z,11.30
2022-08-14T03:45:18.931Z,12.02
2022-08-14T03:46:55.022Z,12.35
2022-08-14T03:49:29.468Z,12.73
2022-08-14T03:52:00.370Z,12.77
2022-08-14T03:54:28.707Z,12.52
2022-08-14T03:57:00.639Z,12.85
2022-08-14T03:59:31.487Z,11.98
2022-08-14T04:02:01.847Z,12.50
2022-08-14T04:04:32.430Z,13.38
2022-08-14T04:07:04.264Z,13.48
2022-08-14T04:09:32.172Z,13.60
2022-08-14T04:12:00.105Z,13.18
2022-08-14T04:14:29.139Z,13.07
2022-08-14T04:16:56.284Z,13.00
2022-08-14T04:19:24.572Z,13.98
2022-08-14T04:22:03.435Z,14.00
2022-08-14T04:24:39.103Z,14.95
2022-08-14T04:27:11.745Z,13.55
2022-08-14T04:29:44.931Z,14.32
2022-08-14T04:33:10.255Z,14.63
2022-08-14T04:35:00.821Z,13.88
2022-08-14T04:37:45.957Z,14.30
2022-08-14T04:40:33.124Z,13.70
2022-08-14T04:43:21.011Z,14.65
2022-08-14T04:45:51.038Z,14.93
2022-08-14T04:48:36.706Z,15.10
2022-08-14T04:51:14.119Z,14.60
2022-08-14T04:53:43.751Z,15.07
2022-08-14T04:56:31.444Z,15.20
2022-08-14T04:59:09.666Z,14.90
2022-08-14T05:01:48.874Z,15.85
2022-08-14T05:04:21.905Z,16.23
2022-08-14T05:06:54.317Z,15.30
2022-08-14T05:09:23.660Z,16.73
2022-08-14T05:11:51.409Z,17.17
2022-08-14T05:14:45.991Z,16.67
2022-08-14T05:17:10.768Z,16.38
2022-08-14T05:19:44.579Z,16.55
2022-08-14T05:22:27.021Z,16.25
2022-08-14T05:24:54.233Z,16.60
2022-08-14T05:27:22.789Z,16.75
2022-08-14T05:29:53.026Z,17.20
2022-08-14T05:32:20.122Z,16.80
2022-08-14T05:34:47.284Z,17.70
2022-08-14T05:37:15.225Z,16.40
2022-08-14T05:39:43.177Z,16.67
2022-08-14T05:42:22.228Z,16.88
2022-08-14T05:44:55.200Z,17.05
2022-08-14T05:47:22.922Z,17.42
2022-08-14T05:49:50.544Z,16.98
2022-08-14T05:52:18.836Z,17.55
2022-08-14T05:54:53.383Z,16.73
2022-08-14T05:57:20.872Z,17.02
2022-08-14T05:59:48.384Z,17.25
2022-08-14T06:02:15.112Z,16.45
2022-08-14T06:04:48.245Z,17.40
2022-08-14T06:07:16.181Z,16.75
2022-08-14T06:09:43.117Z,17.40
2022-08-14T06:12:55.239Z,16.67
2022-08-14T06:15:08.112Z,17.15
2022-08-14T06:17:55.853Z,16.80
2022-08-14T06:20:27.924Z,16.52
2022-08-14T06:22:55.555Z,16.90
2022-08-14T06:25:25.039Z,18.08
2022-08-14T06:27:52.920Z,17.75
2022-08-14T06:30:22.050Z,16.55
2022-08-14T06:32:53.019Z,16.48
2022-08-14T06:35:20.872Z,17.13
2022-08-14T06:37:50.190Z,15.07
2022-08-14T06:40:27.046Z,15.75
2022-08-14T06:42:56.790Z,16.60
2022-08-14T06:45:27.982Z,16.33
2022-08-14T06:47:58.650Z,17.00
2022-08-14T06:50:28.565Z,16.55
2022-08-14T06:53:00.399Z,16.42
2022-08-14T06:55:28.215Z,16.13
2022-08-14T06:57:57.714Z,15.65
2022-08-14T07:00:30.809Z,15.68
2022-08-14T07:03:17.932Z,15.38
2022-08-14T07:05:55.936Z,15.95
2022-08-14T07:08:31.571Z,15.30
2022-08-14T07:11:03.831Z,14.65
2022-08-14T07:13:31.165Z,15.38
2022-08-14T07:16:00.746Z,14.00
2022-08-14T07:18:34.329Z,13.57
2022-08-14T07:21:02.410Z,13.68
2022-08-14T07:23:31.205Z,13.55
2022-08-14T07:26:00.098Z,14.32
2022-08-14T07:28:33.451Z,13.73
2022-08-14T07:31:05.840Z,14.25
2022-08-14T07:33:50.770Z,13.55
2022-08-14T07:36:27.664Z,14.25
2022-08-14T07:39:03.387Z,13.75
2022-08-14T07:41:42.385Z,13.00
2022-08-14T07:44:29.687Z,13.45
2022-08-14T07:46:58.127Z,14.10
2022-08-14T07:49:25.422Z,13.00
2022-08-14T07:51:52.771Z,13.15
2022-08-14T07:54:23.658Z,13.02
2022-08-14T07:57:06.304Z,12.80
2022-08-14T07:59:42.182Z,13.13
2022-08-14T08:02:18.922Z,12.85
2022-08-14T08:04:50.426Z,13.38
2022-08-14T08:07:21.759Z,13.25
2022-08-14T08:09:54.461Z,12.25
2022-08-14T08:12:26.146Z,13.13
2022-08-14T08:15:05.974Z,11.95
2022-08-14T08:17:38.725Z,12.80
2022-08-14T08:20:19.957Z,12.32
2022-08-14T08:22:49.895Z,12.43
2022-08-14T08:25:24.669Z,11.05
2022-08-14T08:28:07.980Z,11.60
2022-08-14T08:30:37.719Z,11.02
2022-08-14T08:33:16.747Z,11.82
2022-08-14T08:35:50.456Z,11.02
2022-08-14T08:39:15.496Z,11.05
2022-08-14T08:41:11.153Z,10.93
2022-08-14T08:43:38.976Z,11.02
2022-08-14T08:46:18.599Z,10.82
2022-08-14T08:48:54.134Z,9.88
2022-08-14T08:51:30.977Z,10.50
2022-08-14T08:54:15.179Z,10.35
2022-08-14T08:56:52.003Z,9.18
2022-08-14T08:59:31.537Z,8.98
2022-08-14T09:02:06.999Z,8.60
2022-08-14T09:04:45.191Z,8.85
2022-08-14T09:07:26.180Z,9.23
2022-08-14T09:09:59.512Z,9.27
2022-08-14T09:12:32.557Z,8.70
2022-08-14T09:15:12.584Z,8.48
2022-08-14T09:17:41.489Z,8.15
2022-08-14T09:20:12.719Z,8.30
2022-08-14T09:22:48.142Z,8.88
2022-08-14T09:25:16.547Z,7.70
2022-08-14T09:27:43.546Z,7.25
2022-08-14T09:30:31.379Z,7.47
2022-08-14T09:33:11.777Z,8.10
2022-08-14T09:36:13.728Z,7.78
2022-08-14T09:39:05.307Z,7.18
2022-08-14T09:42:20.612Z,7.32
2022-08-14T09:45:08.919Z,6.63
2022-08-14T09:47:43.307Z,6.68
2022-08-14T09:50:50.473Z,6.93
2022-08-14T09:54:19.430Z,6.93
2022-08-14T09:56:30.286Z,5.90
2022-08-14T09:59:01.109Z,6.65
2022-08-14T10:01:37.520Z,6.30
2022-08-14T10:04:35.984Z,6.15
2022-08-14T10:07:05.729Z,6.00
2022-08-14T10:09:34.873Z,5.97
2022-08-14T10:12:04.739Z,5.68
2022-08-14T10:14:36.576Z,6.68
2022-08-14T10:17:06.549Z,6.90
2022-08-14T10:19:36.567Z,6.97
2022-08-14T10:23:12.373Z,6.60
2022-08-14T10:24:54.771Z,6.40
2022-08-14T10:27:24.821Z,7.15
2022-08-14T10:30:03.803Z,6.43
2022-08-14T10:32:39.983Z,6.55
2022-08-14T10:35:14.055Z,6.57
2022-08-14T10:37:52.623Z,6.70
2022-08-14T10:40:43.404Z,6.07
2022-08-14T10:43:26.636Z,6.13
2022-08-14T10:46:21.826Z,5.90
2022-08-14T10:49:02.733Z,5.68
2022-08-14T10:54:26.335Z,6.13
2022-08-14T10:56:57.792Z,5.30
2022-08-14T10:59:34.977Z,6.13
2022-08-14T11:02:45.152Z,6.20
2022-08-14T11:05:18.336Z,5.45
2022-08-14T11:07:55.301Z,5.60
2022-08-14T11:10:27.779Z,5.68
2022-08-14T11:12:57.925Z,6.07
2022-08-14T11:15:28.773Z,5.57
2022-08-14T11:18:01.248Z,6.07
2022-08-14T11:20:30.929Z,5.63
2022-08-14T11:23:00.876Z,5.35
2022-08-14T11:25:43.264Z,5.10
2022-08-14T11:28:14.867Z,5.25
2022-08-14T11:30:54.248Z,5.10
2022-08-14T11:33:29.414Z,5.60
2022-08-14T11:36:01.853Z,5.00
2022-08-14T11:38:35.731Z,5.32
2022-08-14T11:41:05.501Z,5.05
2022-08-14T11:43:56.030Z,5.32
2022-08-14T11:46:30.772Z,4.82
2022-08-14T11:49:06.419Z,4.60
2022-08-14T11:51:50.774Z,5.22
2022-08-14T11:54:34.431Z,5.18
2022-08-14T11:59:32.794Z,5.32
2022-08-14T12:03:01.298Z,4.88
2022-08-14T12:05:04.235Z,5.03
2022-08-14T12:07:33.473Z,4.70
2022-08-14T12:10:27.129Z,4.63
2022-08-14T12:12:56.445Z,4.15
2022-08-14T12:15:34.887Z,4.38
2022-08-14T12:18:03.064Z,4.60
2022-08-14T12:20:37.486Z,4.00
2022-08-14T12:23:27.592Z,4.00
2022-08-14T12:26:32.044Z,3.55
2022-08-14T12:29:16.635Z,3.50
2022-08-14T12:31:47.411Z,3.75
2022-08-14T12:34:22.841Z,3.78
2022-08-14T12:37:12.349Z,3.70
2022-08-14T12:39:40.183Z,3.50
2022-08-14T12:42:07.648Z,3.22
2022-08-14T12:44:42.567Z,3.20
2022-08-14T12:47:15.191Z,3.70
2022-08-14T12:49:52.965Z,3.40
2022-08-14T12:52:36.277Z,3.40
2022-08-14T12:55:20.700Z,3.83
2022-08-14T12:57:49.395Z,3.78
2022-08-14T13:00:23.997Z,3.85
2022-08-14T13:02:55.424Z,3.72
2022-08-14T13:05:29.975Z,3.50
2022-08-14T13:07:59.357Z,4.10
2022-08-14T13:10:47.854Z,3.42
2022-08-14T13:13:18.086Z,3.78
2022-08-14T13:15:57.215Z,3.60
2022-08-14T13:18:27.941Z,4.00
2022-08-14T13:21:02.021Z,3.63
2022-08-14T13:23:33.764Z,3.90
2022-08-14T13:26:04.412Z,3.67
2022-08-14T13:28:39.831Z,3.75
2022-08-14T13:31:24.156Z,4.03
2022-08-14T13:33:57.733Z,3.97
2022-08-14T13:36:51.557Z,4.40
2022-08-14T13:39:17.062Z,3.65
2022-08-14T13:44:25.352Z,3.90
2022-08-14T13:46:52.818Z,4.15
2022-08-14T13:49:19.607Z,4.35
2022-08-14T13:51:49.334Z,4.20
2022-08-14T13:54:21.190Z,4.20
2022-08-14T13:56:49.637Z,4.10
2022-08-14T13:59:20.531Z,4.45
2022-08-14T14:02:06.916Z,4.15
2022-08-14T14:04:49.261Z,4.35
2022-08-14T14:07:20.394Z,5.10
2022-08-14T14:09:51.129Z,4.50
2022-08-14T14:12:38.034Z,4.40
2022-08-14T14:15:09.637Z,4.68
2022-08-14T14:17:38.904Z,4.93
2022-08-14T14:20:15.204Z,4.82
2022-08-14T14:23:02.602Z,4.80
2022-08-14T14:25:45.878Z,4.90
2022-08-14T14:28:17.114Z,5.00
2022-08-14T14:30:57.152Z,5.25
2022-08-14T14:36:14.902Z,5.10
2022-08-14T14:38:44.216Z,4.90
2022-08-14T14:41:14.709Z,5.03
2022-08-14T14:43:48.030Z,4.93
2022-08-14T14:46:19.894Z,5.13
2022-08-14T14:48:54.469Z,5.30
2022-08-14T14:51:22.373Z,4.65
2022-08-14T14:53:49.326Z,5.30
2022-08-14T14:56:50.134Z,5.00
2022-08-14T14:59:04.625Z,6.40
2022-08-14T15:01:35.490Z,5.18
2022-08-14T15:04:08.041Z,4.85
2022-08-14T15:06:48.453Z,5.22
2022-08-14T15:09:17.634Z,5.10
2022-08-14T15:11:45.969Z,5.28
2022-08-14T15:14:56.349Z,5.03
2022-08-14T15:17:02.259Z,5.20
2022-08-14T15:19:29.666Z,5.20
2022-08-14T15:21:57.490Z,5.50
2022-08-14T15:24:26.524Z,5.47
2022-08-14T15:26:56.058Z,5.15
2022-08-14T15:29:23.040Z,5.43
2022-08-14T15:31:53.875Z,5.47
2022-08-14T15:34:45.969Z,5.03
2022-08-14T15:37:12.618Z,5.03
2022-08-14T15:39:41.178Z,5.03
2022-08-14T15:42:14.884Z,4.80
2022-08-14T15:44:58.631Z,4.90
2022-08-14T15:47:30.012Z,5.13
2022-08-14T15:50:00.543Z,5.50
2022-08-14T15:52:35.237Z,5.30
2022-08-14T15:55:07.446Z,4.88
2022-08-14T15:57:35.701Z,4.95
2022-08-14T16:00:41.755Z,5.25
2022-08-14T16:03:15.537Z,5.10
2022-08-14T16:05:43.572Z,5.25
2022-08-14T16:08:27.149Z,4.82
2022-08-14T16:10:58.363Z,5.00
2022-08-14T16:13:39.362Z,4.80
2022-08-14T16:16:34.940Z,5.07
2022-08-14T16:19:14.291Z,5.25
2022-08-14T16:22:01.984Z,5.57
2022-08-14T16:25:02.429Z,4.78
2022-08-14T16:27:33.740Z,5.28
2022-08-14T16:30:05.440Z,4.75
2022-08-14T16:32:54.673Z,4.95
2022-08-14T16:35:19.892Z,5.05
2022-08-14T16:37:46.922Z,4.85
2022-08-14T16:40:19.328Z,4.77
2022-08-14T16:43:04.767Z,5.00
2022-08-14T16:45:43.905Z,5.07
2022-08-14T16:48:54.802Z,5.05
2022-08-14T16:51:06.716Z,4.72
2022-08-14T16:53:36.759Z,5.07
2022-08-14T16:56:23.522Z,5.57
2022-08-14T16:59:05.039Z,5.10
2022-08-14T17:01:32.150Z,5.43
2022-08-14T17:04:14.672Z,5.35
2022-08-14T17:06:54.949Z,5.70
2022-08-14T17:09:45.516Z,5.15
2022-08-14T17:12:33.726Z,5.50
2022-08-14T17:15:11.673Z,5.60
2022-08-14T17:17:58.061Z,5.47
2022-08-14T17:20:54.191Z,5.30
2022-08-14T17:23:14.503Z,5.47
2022-08-14T17:25:49.540Z,6.00
2022-08-14T17:28:51.395Z,5.55
2022-08-14T17:31:12.282Z,5.68
2022-08-14T17:33:40.499Z,5.80
2022-08-14T17:36:21.266Z,5.57
2022-08-14T17:39:06.537Z,6.40
2022-08-14T17:42:01.989Z,6.25
2022-08-14T17:44:44.825Z,6.30
2022-08-14T17:47:14.717Z,5.90
2022-08-14T17:49:51.492Z,6.00
2022-08-14T17:52:36.473Z,5.88
2022-08-14T17:55:12.715Z,5.82
2022-08-14T17:57:58.528Z,6.45
2022-08-14T18:00:33.128Z,6.00
2022-08-14T18:03:05.195Z,6.30
2022-08-14T18:06:09.669Z,6.40
2022-08-14T18:08:32.170Z,6.05
2022-08-14T18:11:03.356Z,6.43
2022-08-14T18:13:51.371Z,6.20
2022-08-14T18:16:22.990Z,5.93
2022-08-14T18:18:54.327Z,6.38
2022-08-14T18:21:56.139Z,6.43
2022-08-14T18:24:27.936Z,6.25
2022-08-14T18:27:06.959Z,6.50
2022-08-14T18:29:55.594Z,6.70
2022-08-14T18:32:31.556Z,6.40
2022-08-14T18:35:11.213Z,6.43
2022-08-14T18:37:41.285Z,6.32
2022-08-14T18:40:17.871Z,6.47
2022-08-14T18:42:52.491Z,6.30
2022-08-14T18:45:28.882Z,6.45
2022-08-14T18:48:20.613Z,6.97
2022-08-14T18:51:12.229Z,6.57
2022-08-14T18:54:01.569Z,7.20
2022-08-14T18:57:01.177Z,6.70
2022-08-14T18:59:43.214Z,6.30
2022-08-14T19:02:34.256Z,5.97
2022-08-14T19:05:09.579Z,6.47
2022-08-14T19:07:36.430Z,5.93
2022-08-14T19:10:10.234Z,6.32
2022-08-14T19:12:52.921Z,6.32
2022-08-14T19:15:27.335Z,6.45
2022-08-14T19:18:14.019Z,6.75
2022-08-14T19:20:59.033Z,7.10
2022-08-14T19:23:43.961Z,6.57
2022-08-14T19:26:36.818Z,6.22
2022-08-14T19:29:24.298Z,6.88
2022-08-14T19:31:55.431Z,7.07
2022-08-14T19:34:52.290Z,6.10
2022-08-14T19:37:55.369Z,6.85
2022-08-14T19:40:53.077Z,6.68
2022-08-14T19:43:55.323Z,6.70
2022-08-14T19:46:39.544Z,6.50
2022-08-14T19:48:58.429Z,6.80
2022-08-14T19:51:25.565Z,7.30
2022-08-14T19:54:13.654Z,6.50
2022-08-14T19:56:45.331Z,7.03
2022-08-14T19:59:19.152Z,6.97
2022-08-14T20:01:51.164Z,7.60
2022-08-14T20:04:46.113Z,7.18
2022-08-14T20:08:00.139Z,6.50
2022-08-14T20:11:05.558Z,7.40
2022-08-14T20:13:32.227Z,7.50
2022-08-14T20:16:07.039Z,6.97
2022-08-14T20:18:50.803Z,7.60
2022-08-14T20:21:19.922Z,7.30
2022-08-14T20:23:48.198Z,7.25
2022-08-14T20:26:32.031Z,7.38
2022-08-14T20:29:07.200Z,7.47
2022-08-14T20:31:36.920Z,7.35
2022-08-14T20:34:19.195Z,7.07
2022-08-14T20:37:09.858Z,7.53
2022-08-14T20:39:54.387Z,7.70
2022-08-14T20:42:43.805Z,7.95
2022-08-14T20:45:24.140Z,8.60
2022-08-14T20:48:09.007Z,8.10
2022-08-14T20:50:36.888Z,8.60
2022-08-14T20:53:34.069Z,7.65
2022-08-14T20:56:29.968Z,8.03
2022-08-14T20:58:57.396Z,8.57
2022-08-14T21:01:24.180Z,7.95
2022-08-14T21:04:01.004Z,8.50
2022-08-14T21:07:23.468Z,7.97
2022-08-14T21:10:05.158Z,8.15
2022-08-14T21:12:33.677Z,8.63
2022-08-14T21:15:00.833Z,8.65
2022-08-14T21:17:29.552Z,8.77
2022-08-14T21:19:56.629Z,8.45
2022-08-14T21:22:23.581Z,8.77
2022-08-14T21:25:02.197Z,8.70
2022-08-14T21:27:37.452Z,9.35
2022-08-14T21:30:08.537Z,8.52
2022-08-14T21:32:47.110Z,9.02
2022-08-14T21:35:18.700Z,9.02
2022-08-14T21:37:48.026Z,9.00
2022-08-14T21:40:31.630Z,8.60
2022-08-14T21:43:04.959Z,8.80
2022-08-14T21:45:35.642Z,8.98
2022-08-14T21:48:09.137Z,9.13
2022-08-14T21:51:00.409Z,8.85
2022-08-14T21:53:30.910Z,9.15
2022-08-14T21:55:58.510Z,8.90
2022-08-14T21:58:54.281Z,9.27
2022-08-14T22:01:16.024Z,8.95
2022-08-14T22:03:45.120Z,9.35
2022-08-14T22:06:21.264Z,9.43
2022-08-14T22:08:56.526Z,9.43
2022-08-14T22:11:23.438Z,9.07
2022-08-14T22:13:52.527Z,9.85
2022-08-14T22:17:03.279Z,10.10
2022-08-14T22:19:13.899Z,10.60
2022-08-14T22:21:44.035Z,10.35
2022-08-14T22:24:12.697Z,10.23
2022-08-14T22:27:01.418Z,11.13
2022-08-14T22:29:29.035Z,10.43
2022-08-14T22:31:55.991Z,10.10
2022-08-14T22:34:23.735Z,9.82
2022-08-14T22:36:51.134Z,10.73
2022-08-14T22:40:17.410Z,10.60
2022-08-14T22:42:21.117Z,10.10
2022-08-14T22:44:51.871Z,10.38
2022-08-14T22:47:24.788Z,10.88
2022-08-14T22:50:31.464Z,10.23
2022-08-14T22:52:39.376Z,10.85
2022-08-14T22:55:07.472Z,10.95
2022-08-14T22:57:41.709Z,10.43
2022-08-14T23:00:20.452Z,11.70
2022-08-14T23:02:58.185Z,11.27
2022-08-14T23:05:39.019Z,11.73
2022-08-14T23:08:59.940Z,11.80
2022-08-14T23:11:04.041Z,11.73
2022-08-14T23:13:32.751Z,11.15
2022-08-14T23:16:00.758Z,10.95
2022-08-14T23:18:29.774Z,11.38
2022-08-14T23:20:57.392Z,11.85
2022-08-14T23:23:24.290Z,11.00
2022-08-14T23:25:59.071Z,11.27
2022-08-14T23:28:56.961Z,11.38
2022-08-14T23:31:34.173Z,11.05
2022-08-14T23:34:06.860Z,11.63
2022-08-14T23:36:37.564Z,11.55
2022-08-14T23:39:19.647Z,11.55
2022-08-14T23:41:52.798Z,10.90
2022-08-14T23:44:22.899Z,11.70
2022-08-14T23:46:56.517Z,11.70
2022-08-14T23:49:25.202Z,11.77
2022-08-14T23:52:49.515Z,11.98
2022-08-14T23:54:48.475Z,12.07
2022-08-14T23:57:19.019Z,11.77
2022-08-14T23:59:54.924Z,14.35
